createdAt,value
2023-03-18T00:04:46.886Z,22.07
2023-03-18T00:09:49.782Z,18.10
2023-03-18T00:14:52.584Z,20.35
2023-03-18T00:19:55.423Z,20.33
2023-03-18T00:24:58.333Z,19.73
2023-03-18T00:30:01.215Z,28.00
2023-03-18T00:35:04.283Z,18.42
2023-03-18T00:40:10.752Z,22.73
2023-03-18T00:45:16.313Z,23.17
2023-03-18T00:50:19.550Z,19.17
2023-03-18T00:55:22.543Z,25.27
2023-03-18T01:00:28.272Z,17.38
2023-03-18T01:05:32.673Z,16.20
2023-03-18T01:10:35.615Z,21.50
2023-03-18T01:15:38.346Z,23.08
2023-03-18T01:20:41.105Z,22.73
2023-03-18T01:25:45.117Z,21.08
2023-03-18T01:30:51.841Z,16.38
2023-03-18T01:36:03.989Z,18.73
2023-03-18T01:41:08.927Z,19.90
2023-03-18T01:46:33.000Z,13.87
2023-03-18T01:51:37.606Z,21.08
2023-03-18T01:56:42.980Z,17.90
2023-03-18T02:02:03.310Z,21.07
2023-03-18T02:07:18.391Z,17.35
2023-03-18T02:12:33.623Z,16.20
2023-03-18T02:17:41.491Z,18.52
2023-03-18T02:22:50.900Z,15.57
2023-03-18T02:27:59.599Z,20.30
2023-03-18T02:33:06.433Z,18.13
2023-03-18T02:38:09.622Z,19.43
2023-03-18T02:43:28.150Z,23.25
2023-03-18T02:48:40.837Z,20.85
2023-03-18T02:53:44.802Z,20.70
2023-03-18T02:58:48.729Z,24.65
2023-03-18T03:03:53.505Z,18.50
2023-03-18T03:08:57.519Z,21.75
2023-03-18T03:14:01.421Z,24.13
2023-03-18T03:19:08.000Z,22.33
2023-03-18T03:24:12.147Z,18.88
2023-03-18T03:29:15.508Z,19.27
2023-03-18T03:34:18.584Z,22.65
2023-03-18T03:39:21.241Z,19.27
2023-03-18T03:44:24.582Z,24.87
2023-03-18T03:49:27.510Z,25.17
2023-03-18T03:54:30.128Z,22.10
2023-03-18T03:59:32.705Z,23.02
2023-03-18T04:04:55.526Z,21.83
2023-03-18T04:10:03.265Z,23.80
2023-03-18T04:15:09.981Z,21.63
2023-03-18T04:20:13.976Z,27.67
2023-03-18T04:25:16.669Z,22.75
2023-03-18T04:30:20.949Z,25.33
2023-03-18T04:35:47.887Z,23.90
2023-03-18T04:40:53.044Z,21.75
2023-03-18T04:45:56.832Z,25.13
2023-03-18T04:51:00.216Z,17.60
2023-03-18T04:56:06.428Z,22.80
2023-03-18T05:01:18.180Z,16.83
2023-03-18T05:06:27.583Z,22.42
2023-03-18T05:11:33.447Z,18.97
2023-03-18T05:16:43.865Z,22.95
2023-03-18T05:21:46.514Z,16.08
2023-03-18T05:26:49.792Z,22.90
2023-03-18T05:31:54.778Z,23.52
2023-03-18T05:36:57.877Z,16.60
2023-03-18T05:42:02.517Z,22.08
2023-03-18T05:47:05.690Z,24.50
2023-03-18T05:52:25.094Z,15.47
2023-03-18T05:57:31.678Z,16.60
2023-03-18T06:02:38.150Z,21.63
2023-03-18T06:07:41.510Z,21.52
2023-03-18T06:12:44.920Z,25.15
2023-03-18T06:17:47.907Z,18.47
2023-03-18T06:22:50.616Z,16.80
2023-03-18T06:27:53.365Z,13.47
2023-03-18T06:33:00.867Z,11.90
2023-03-18T06:38:04.014Z,14.27
2023-03-18T06:43:11.046Z,19.60
2023-03-18T06:48:18.259Z,18.13
2023-03-18T06:53:23.130Z,22.80
2023-03-18T06:58:27.355Z,22.13
2023-03-18T07:03:39.149Z,19.58
2023-03-18T07:08:42.911Z,23.90
2023-03-18T07:13:45.965Z,19.90
2023-03-18T07:19:04.856Z,20.43
2023-03-18T07:24:08.465Z,27.00
2023-03-18T07:29:11.250Z,20.02
2023-03-18T07:34:15.475Z,20.03
2023-03-18T07:39:18.121Z,22.67
2023-03-18T07:44:21.045Z,16.27
2023-03-18T07:49:24.166Z,18.55
2023-03-18T07:54:26.762Z,16.30
2023-03-18T07:59:29.644Z,15.60
2023-03-18T08:04:32.992Z,21.27
2023-03-18T08:09:36.016Z,18.80
2023-03-18T08:14:38.963Z,19.08
2023-03-18T08:19:42.096Z,16.63
2023-03-18T08:24:45.936Z,16.27
2023-03-18T08:29:48.633Z,17.33
2023-03-18T08:34:51.704Z,13.30
2023-03-18T08:39:54.863Z,14.90
2023-03-18T08:44:57.888Z,18.02
2023-03-18T08:50:01.000Z,16.63
2023-03-18T08:55:04.155Z,15.35
2023-03-18T09:00:07.413Z,15.97
2023-03-18T09:05:10.606Z,17.50
2023-03-18T09:10:15.068Z,15.73
2023-03-18T09:15:21.168Z,14.60
2023-03-18T09:20:23.995Z,13.90
2023-03-18T09:25:27.361Z,16.00
2023-03-18T09:30:30.774Z,15.35
2023-03-18T09:35:35.863Z,14.27
2023-03-18T09:40:58.580Z,13.23
2023-03-18T09:46:07.280Z,9.80
2023-03-18T09:51:37.819Z,10.20
2023-03-18T09:56:41.065Z,11.93
2023-03-18T10:01:47.039Z,10.55
2023-03-18T10:07:04.411Z,14.23
2023-03-18T10:12:32.904Z,12.77
2023-03-18T10:17:51.893Z,11.13
2023-03-18T10:23:11.401Z,10.55
2023-03-18T10:28:26.413Z,9.60
2023-03-18T10:33:47.671Z,8.87
2023-03-18T10:38:53.795Z,11.20
2023-03-18T10:43:57.829Z,11.13
2023-03-18T10:49:33.217Z,11.27
2023-03-18T10:54:42.449Z,9.48
2023-03-18T10:59:46.300Z,9.83
2023-03-18T11:05:05.047Z,9.45
2023-03-18T11:10:18.303Z,8.37
2023-03-18T11:15:21.243Z,11.80
2023-03-18T11:20:33.857Z,9.68
2023-03-18T11:25:37.133Z,11.77
2023-03-18T11:30:50.092Z,10.70
2023-03-18T11:36:14.795Z,12.20
2023-03-18T11:41:28.358Z,10.65
2023-03-18T11:46:36.599Z,13.13
2023-03-18T11:52:04.496Z,11.20
2023-03-18T11:57:22.670Z,12.73
2023-03-18T12:03:03.934Z,12.37
2023-03-18T12:08:43.805Z,10.80
2023-03-18T12:14:00.368Z,10.63
2023-03-18T12:19:17.049Z,10.03
2023-03-18T12:24:43.880Z,9.32
2023-03-18T12:30:12.368Z,10.93
2023-03-18T12:35:32.388Z,11.20
2023-03-18T12:40:49.539Z,12.20
2023-03-18T12:45:59.018Z,12.97
2023-03-18T12:51:12.582Z,11.15
2023-03-18T12:56:22.074Z,11.93
2023-03-18T13:01:58.737Z,8.82
2023-03-18T13:07:21.573Z,14.32
2023-03-18T13:12:31.919Z,10.20
2023-03-18T13:17:42.579Z,11.10
2023-03-18T13:22:47.857Z,12.37
2023-03-18T13:28:26.907Z,9.25
2023-03-18T13:33:50.682Z,9.05
2023-03-18T13:38:59.672Z,11.07
2023-03-18T13:44:11.392Z,11.15
2023-03-18T13:49:22.106Z,12.07
2023-03-18T13:54:47.971Z,10.02
2023-03-18T13:59:51.373Z,11.15
2023-03-18T14:04:54.071Z,12.10
2023-03-18T14:10:17.841Z,10.93
2023-03-18T14:15:37.283Z,10.40
2023-03-18T14:20:44.626Z,10.15
2023-03-18T14:25:54.830Z,9.52
2023-03-18T14:31:20.189Z,9.80
2023-03-18T14:36:55.862Z,11.52
2023-03-18T14:42:02.246Z,9.47
2023-03-18T14:47:28.186Z,11.63
2023-03-18T14:52:42.877Z,9.60
2023-03-18T14:57:46.652Z,12.13
2023-03-18T15:03:20.215Z,10.20
2023-03-18T15:08:37.430Z,9.47
2023-03-18T15:13:47.460Z,9.50
2023-03-18T15:18:55.298Z,10.25
2023-03-18T15:24:02.152Z,10.50
2023-03-18T15:29:36.767Z,11.00
2023-03-18T15:34:42.492Z,9.50
2023-03-18T15:39:45.714Z,8.90
2023-03-18T15:45:01.867Z,7.60
2023-03-18T15:50:20.047Z,10.43
2023-03-18T15:55:34.542Z,6.75
2023-03-18T16:00:37.826Z,8.60
2023-03-18T16:05:40.684Z,7.25
2023-03-18T16:10:44.943Z,9.55
2023-03-18T16:15:48.156Z,11.27
2023-03-18T16:20:51.677Z,11.60
2023-03-18T16:25:56.891Z,9.03
2023-03-18T16:30:59.606Z,12.40
2023-03-18T16:36:04.435Z,11.82
2023-03-18T16:41:08.462Z,11.23
2023-03-18T16:46:14.283Z,8.43
2023-03-18T16:51:17.069Z,12.87
2023-03-18T16:56:22.329Z,12.23
2023-03-18T17:01:26.847Z,10.07
2023-03-18T17:06:29.610Z,11.67
2023-03-18T17:11:32.306Z,9.25
2023-03-18T17:16:35.395Z,11.10
2023-03-18T17:21:38.264Z,22.17
2023-03-18T17:26:41.386Z,11.85
2023-03-18T17:31:44.009Z,13.10
2023-03-18T17:36:47.371Z,10.77
2023-03-18T17:41:50.193Z,12.33
2023-03-18T17:46:54.261Z,13.93
2023-03-18T17:51:57.415Z,14.65
2023-03-18T17:57:00.258Z,16.23
2023-03-18T18:02:02.975Z,13.23
2023-03-18T18:07:15.866Z,12.67
2023-03-18T18:12:25.559Z,15.30
2023-03-18T18:17:28.560Z,17.50
2023-03-18T18:22:31.401Z,16.77
2023-03-18T18:27:34.114Z,17.73
2023-03-18T18:32:36.777Z,19.43
2023-03-18T18:37:39.764Z,18.30
2023-03-18T18:42:44.000Z,15.18
2023-03-18T18:47:46.697Z,18.70
2023-03-18T18:52:49.394Z,19.80
2023-03-18T18:57:53.437Z,16.50
2023-03-18T19:02:58.873Z,17.52
2023-03-18T19:08:03.792Z,17.80
2023-03-18T19:13:13.948Z,19.90
2023-03-18T19:18:20.506Z,22.55
2023-03-18T19:23:24.922Z,27.23
2023-03-18T19:28:58.446Z,26.80
2023-03-18T19:34:05.817Z,21.15
2023-03-18T19:39:19.705Z,28.40
2023-03-18T19:44:26.808Z,29.08
2023-03-18T19:49:36.077Z,28.90
2023-03-18T19:54:41.261Z,27.33
2023-03-18T19:59:45.170Z,25.05
2023-03-18T20:04:49.549Z,26.20
2023-03-18T20:09:53.056Z,31.88
2023-03-18T20:14:56.205Z,28.60
2023-03-18T20:20:00.174Z,33.17
2023-03-18T20:25:05.222Z,46.83
2023-03-18T20:30:23.954Z,35.33
2023-03-18T20:35:29.362Z,49.40
2023-03-18T20:40:32.930Z,49.90
2023-03-18T20:45:35.857Z,49.30
2023-03-18T20:50:39.796Z,52.45
2023-03-18T20:55:42.925Z,45.53
2023-03-18T21:00:49.223Z,51.55
2023-03-18T21:05:58.276Z,47.10
2023-03-18T21:11:04.792Z,57.08
2023-03-18T21:16:13.452Z,55.15
2023-03-18T21:21:25.925Z,48.97
2023-03-18T21:26:28.751Z,42.70
2023-03-18T21:31:31.764Z,39.60
2023-03-18T21:36:34.537Z,39.78
2023-03-18T21:41:37.372Z,40.50
2023-03-18T21:46:40.049Z,43.33
2023-03-18T21:51:43.523Z,38.10
2023-03-18T21:56:46.259Z,39.57
2023-03-18T22:01:48.981Z,37.50
2023-03-18T22:06:51.559Z,38.70
2023-03-18T22:11:54.175Z,37.53
2023-03-18T22:16:56.715Z,29.05
2023-03-18T22:21:59.309Z,29.27
2023-03-18T22:27:01.927Z,33.50
2023-03-18T22:32:04.809Z,30.85
2023-03-18T22:37:19.226Z,28.63
2023-03-18T22:42:24.386Z,27.75
2023-03-18T22:47:27.137Z,27.07
2023-03-18T22:52:31.356Z,26.27
2023-03-18T22:57:34.041Z,29.63
2023-03-18T23:02:36.678Z,28.67
2023-03-18T23:07:40.421Z,20.75
2023-03-18T23:12:43.493Z,22.50
2023-03-18T23:17:46.783Z,21.40
2023-03-18T23:22:49.739Z,19.23
2023-03-18T23:27:52.352Z,23.47
2023-03-18T23:32:55.189Z,22.10
2023-03-18T23:37:57.833Z,30.10
2023-03-18T23:43:00.563Z,25.90
2023-03-18T23:48:04.256Z,22.63
2023-03-18T23:53:06.802Z,26.90
2023-03-18T23:58:09.470Z,24.55
